sensor_id;sensor_type;location;lat;lon;timestamp;pressure;altitude;pressure_sealevel;temperature;humidity
73501;BME280;61721;42.206;25.320;2022-12-29T00:00:07;100863.41;;;6.78;76.03
73501;BME280;61721;42.206;25.320;2022-12-29T00:02:47;100865.13;;;7.09;74.76
73501;BME280;61721;42.206;25.320;2022-12-29T00:05:24;100864.47;;;7.20;74.22
73501;BME280;61721;42.206;25.320;2022-12-29T00:08:07;100863.22;;;6.81;76.00
73501;BME280;61721;42.206;25.320;2022-12-29T00:10:37;100864.97;;;6.97;75.73
73501;BME280;61721;42.206;25.320;2022-12-29T00:13:22;100870.09;;;7.15;74.99
73501;BME280;61721;42.206;25.320;2022-12-29T00:16:12;100872.25;;;7.09;75.11
73501;BME280;61721;42.206;25.320;2022-12-29T00:18:58;100865.63;;;7.16;74.89
73501;BME280;61721;42.206;25.320;2022-12-29T00:21:42;100872.47;;;7.20;74.75
73501;BME280;61721;42.206;25.320;2022-12-29T00:24:39;100878.00;;;7.31;73.79
73501;BME280;61721;42.206;25.320;2022-12-29T00:27:32;100876.38;;;7.43;73.88
73501;BME280;61721;42.206;25.320;2022-12-29T00:30:19;100882.69;;;7.12;74.97
73501;BME280;61721;42.206;25.320;2022-12-29T00:33:28;100881.16;;;7.08;75.12
73501;BME280;61721;42.206;25.320;2022-12-29T00:36:16;100891.84;;;7.22;74.71
73501;BME280;61721;42.206;25.320;2022-12-29T00:39:03;100886.22;;;7.70;72.90
73501;BME280;61721;42.206;25.320;2022-12-29T00:41:50;100884.03;;;7.05;74.30
73501;BME280;61721;42.206;25.320;2022-12-29T00:44:47;100895.53;;;7.05;75.71
73501;BME280;61721;42.206;25.320;2022-12-29T00:47:26;100911.56;;;7.34;75.09
73501;BME280;61721;42.206;25.320;2022-12-29T00:49:53;100905.72;;;6.67;77.66
73501;BME280;61721;42.206;25.320;2022-12-29T00:52:38;100915.13;;;6.88;76.89
73501;BME280;61721;42.206;25.320;2022-12-29T00:55:07;100909.78;;;6.74;76.76
73501;BME280;61721;42.206;25.320;2022-12-29T00:57:37;100904.19;;;6.63;76.71
73501;BME280;61721;42.206;25.320;2022-12-29T01:00:22;100905.34;;;6.89;76.41
73501;BME280;61721;42.206;25.320;2022-12-29T01:03:08;100906.09;;;6.91;75.99
73501;BME280;61721;42.206;25.320;2022-12-29T01:05:53;100908.09;;;6.87;75.88
73501;BME280;61721;42.206;25.320;2022-12-29T01:08:27;100907.19;;;6.73;76.26
73501;BME280;61721;42.206;25.320;2022-12-29T01:11:14;100900.94;;;6.74;76.18
73501;BME280;61721;42.206;25.320;2022-12-29T01:13:58;100907.47;;;6.53;76.13
73501;BME280;61721;42.206;25.320;2022-12-29T01:16:34;100913.28;;;6.75;75.51
73501;BME280;61721;42.206;25.320;2022-12-29T01:19:18;100905.66;;;6.53;75.82
73501;BME280;61721;42.206;25.320;2022-12-29T01:21:48;100901.63;;;6.46;76.05
73501;BME280;61721;42.206;25.320;2022-12-29T01:24:31;100891.50;;;6.53;74.97
73501;BME280;61721;42.206;25.320;2022-12-29T01:27:02;100898.22;;;6.28;75.85
73501;BME280;61721;42.206;25.320;2022-12-29T01:29:48;100902.34;;;6.34;75.59
73501;BME280;61721;42.206;25.320;2022-12-29T01:32:33;100901.03;;;6.41;76.01
73501;BME280;61721;42.206;25.320;2022-12-29T01:35:01;100895.22;;;6.50;74.68
73501;BME280;61721;42.206;25.320;2022-12-29T01:37:37;100889.66;;;6.39;75.75
73501;BME280;61721;42.206;25.320;2022-12-29T01:40:08;100888.84;;;6.53;74.92
73501;BME280;61721;42.206;25.320;2022-12-29T01:42:36;100884.03;;;6.59;74.65
73501;BME280;61721;42.206;25.320;2022-12-29T01:45:22;100892.03;;;6.59;75.60
73501;BME280;61721;42.206;25.320;2022-12-29T01:48:09;100888.44;;;6.60;74.91
73501;BME280;61721;42.206;25.320;2022-12-29T01:50:50;100886.72;;;6.59;75.17
73501;BME280;61721;42.206;25.320;2022-12-29T01:53:22;100881.13;;;6.94;74.12
73501;BME280;61721;42.206;25.320;2022-12-29T01:55:53;100879.84;;;7.01;73.77
73501;BME280;61721;42.206;25.320;2022-12-29T01:58:24;100872.53;;;7.18;72.02
73501;BME280;61721;42.206;25.320;2022-12-29T02:00:54;100869.59;;;7.09;73.27
73501;BME280;61721;42.206;25.320;2022-12-29T02:03:39;100871.16;;;6.97;73.91
73501;BME280;61721;42.206;25.320;2022-12-29T02:06:28;100872.56;;;6.88;73.94
73501;BME280;61721;42.206;25.320;2022-12-29T02:08:56;100870.13;;;7.00;72.93
73501;BME280;61721;42.206;25.320;2022-12-29T02:11:25;100871.53;;;7.35;71.96
73501;BME280;61721;42.206;25.320;2022-12-29T02:13:56;100869.00;;;6.74;73.76
73501;BME280;61721;42.206;25.320;2022-12-29T02:16:51;100878.22;;;7.12;72.96
73501;BME280;61721;42.206;25.320;2022-12-29T02:19:51;100872.56;;;6.88;72.77
73501;BME280;61721;42.206;25.320;2022-12-29T02:22:28;100866.41;;;6.72;74.68
73501;BME280;61721;42.206;25.320;2022-12-29T02:25:53;100864.63;;;7.03;72.80
73501;BME280;61721;42.206;25.320;2022-12-29T02:29:11;100852.88;;;7.21;72.75
73501;BME280;61721;42.206;25.320;2022-12-29T02:32:08;100858.56;;;7.15;72.61
73501;BME280;61721;42.206;25.320;2022-12-29T02:34:48;100862.47;;;6.79;74.35
73501;BME280;61721;42.206;25.320;2022-12-29T02:37:42;100856.66;;;7.17;72.68
73501;BME280;61721;42.206;25.320;2022-12-29T02:40:18;100855.69;;;7.04;73.13
73501;BME280;61721;42.206;25.320;2022-12-29T02:43:16;100847.94;;;7.15;73.36
73501;BME280;61721;42.206;25.320;2022-12-29T02:46:02;100846.28;;;6.68;74.23
73501;BME280;61721;42.206;25.320;2022-12-29T02:48:41;100838.16;;;6.40;75.90
73501;BME280;61721;42.206;25.320;2022-12-29T02:51:15;100844.41;;;6.70;75.45
73501;BME280;61721;42.206;25.320;2022-12-29T02:53:45;100839.00;;;6.56;75.47
73501;BME280;61721;42.206;25.320;2022-12-29T02:56:39;100839.25;;;7.11;74.03
73501;BME280;61721;42.206;25.320;2022-12-29T02:59:25;100839.25;;;7.11;73.46
73501;BME280;61721;42.206;25.320;2022-12-29T03:02:27;100820.63;;;7.11;73.66
73501;BME280;61721;42.206;25.320;2022-12-29T03:05:23;100822.78;;;6.91;74.65
73501;BME280;61721;42.206;25.320;2022-12-29T03:08:04;100822.09;;;7.45;72.18
73501;BME280;61721;42.206;25.320;2022-12-29T03:10:59;100827.78;;;6.81;74.36
73501;BME280;61721;42.206;25.320;2022-12-29T03:13:43;100828.53;;;6.53;75.30
73501;BME280;61721;42.206;25.320;2022-12-29T03:16:51;100834.25;;;6.61;76.89
73501;BME280;61721;42.206;25.320;2022-12-29T03:19:43;100831.09;;;6.70;75.98
73501;BME280;61721;42.206;25.320;2022-12-29T03:22:18;100823.00;;;6.72;75.57
73501;BME280;61721;42.206;25.320;2022-12-29T03:25:16;100821.34;;;6.85;74.68
73501;BME280;61721;42.206;25.320;2022-12-29T03:28:07;100820.84;;;6.49;76.13
73501;BME280;61721;42.206;25.320;2022-12-29T03:30:54;100821.25;;;6.41;76.48
73501;BME280;61721;42.206;25.320;2022-12-29T03:33:41;100826.78;;;6.07;78.44
73501;BME280;61721;42.206;25.320;2022-12-29T03:36:13;100825.25;;;6.03;78.28
73501;BME280;61721;42.206;25.320;2022-12-29T03:39:08;100823.75;;;5.81;79.55
73501;BME280;61721;42.206;25.320;2022-12-29T03:41:59;100824.66;;;6.29;77.93
73501;BME280;61721;42.206;25.320;2022-12-29T03:44:33;100831.47;;;5.86;79.54
73501;BME280;61721;42.206;25.320;2022-12-29T03:47:12;100824.81;;;6.26;78.16
73501;BME280;61721;42.206;25.320;2022-12-29T03:49:49;100831.16;;;6.39;77.24
73501;BME280;61721;42.206;25.320;2022-12-29T03:52:17;100829.63;;;5.88;78.50
73501;BME280;61721;42.206;25.320;2022-12-29T03:55:05;100830.56;;;5.87;79.44
73501;BME280;61721;42.206;25.320;2022-12-29T03:57:32;100832.78;;;5.94;78.98
73501;BME280;61721;42.206;25.320;2022-12-29T04:00:18;100825.00;;;5.91;79.56
73501;BME280;61721;42.206;25.320;2022-12-29T04:02:45;100829.47;;;5.58;80.23
73501;BME280;61721;42.206;25.320;2022-12-29T04:05:31;100827.59;;;5.76;80.68
73501;BME280;61721;42.206;25.320;2022-12-29T04:08:11;100830.19;;;5.77;79.52
73501;BME280;61721;42.206;25.320;2022-12-29T04:10:57;100834.06;;;6.50;77.42
73501;BME280;61721;42.206;25.320;2022-12-29T04:13:25;100829.94;;;5.82;79.41
73501;BME280;61721;42.206;25.320;2022-12-29T04:15:52;100835.22;;;5.66;79.77
73501;BME280;61721;42.206;25.320;2022-12-29T04:18:19;100834.00;;;5.56;79.79
73501;BME280;61721;42.206;25.320;2022-12-29T04:20:52;100830.66;;;6.01;79.63
73501;BME280;61721;42.206;25.320;2022-12-29T04:23:43;100829.13;;;5.64;80.39
73501;BME280;61721;42.206;25.320;2022-12-29T04:26:12;100838.28;;;5.91;79.13
73501;BME280;61721;42.206;25.320;2022-12-29T04:28:39;100833.88;;;6.53;77.22
73501;BME280;61721;42.206;25.320;2022-12-29T04:31:07;100838.66;;;6.62;76.07
73501;BME280;61721;42.206;25.320;2022-12-29T04:33:52;100835.19;;;6.15;78.44
73501;BME280;61721;42.206;25.320;2022-12-29T04:36:20;100835.91;;;6.64;75.92
73501;BME280;61721;42.206;25.320;2022-12-29T04:38:53;100838.00;;;7.03;74.61
73501;BME280;61721;42.206;25.320;2022-12-29T04:41:24;100841.53;;;6.73;75.65
73501;BME280;61721;42.206;25.320;2022-12-29T04:44:10;100836.50;;;7.27;73.17
73501;BME280;61721;42.206;25.320;2022-12-29T04:46:43;100850.59;;;7.15;73.68
73501;BME280;61721;42.206;25.320;2022-12-29T04:49:29;100844.44;;;6.55;75.59
73501;BME280;61721;42.206;25.320;2022-12-29T04:52:14;100846.72;;;6.45;76.17
73501;BME280;61721;42.206;25.320;2022-12-29T04:54:58;100856.31;;;6.63;76.07
73501;BME280;61721;42.206;25.320;2022-12-29T04:57:28;100854.63;;;7.06;73.62
73501;BME280;61721;42.206;25.320;2022-12-29T04:59:57;100863.53;;;6.61;75.38
73501;BME280;61721;42.206;25.320;2022-12-29T05:02:42;100856.78;;;6.85;74.31
73501;BME280;61721;42.206;25.320;2022-12-29T05:05:28;100858.59;;;6.55;75.66
73501;BME280;61721;42.206;25.320;2022-12-29T05:08:08;100865.16;;;6.94;74.72
73501;BME280;61721;42.206;25.320;2022-12-29T05:10:53;100866.81;;;6.35;76.88
73501;BME280;61721;42.206;25.320;2022-12-29T05:13:25;100868.19;;;6.26;76.15
73501;BME280;61721;42.206;25.320;2022-12-29T05:15:53;100869.38;;;6.52;76.13
73501;BME280;61721;42.206;25.320;2022-12-29T05:18:39;100865.44;;;6.89;74.70
73501;BME280;61721;42.206;25.320;2022-12-29T05:21:09;100859.66;;;6.67;75.82
73501;BME280;61721;42.206;25.320;2022-12-29T05:23:38;100860.44;;;6.69;75.56
73501;BME280;61721;42.206;25.320;2022-12-29T05:26:05;100859.81;;;6.79;75.02
73501;BME280;61721;42.206;25.320;2022-12-29T05:28:52;100869.56;;;6.18;76.23
73501;BME280;61721;42.206;25.320;2022-12-29T05:31:38;100868.38;;;6.39;76.37
73501;BME280;61721;42.206;25.320;2022-12-29T05:34:24;100860.66;;;5.87;77.62
73501;BME280;61721;42.206;25.320;2022-12-29T05:36:51;100860.19;;;6.58;77.14
73501;BME280;61721;42.206;25.320;2022-12-29T05:39:18;100863.38;;;6.64;74.70
73501;BME280;61721;42.206;25.320;2022-12-29T05:42:04;100864.84;;;6.38;76.11
73501;BME280;61721;42.206;25.320;2022-12-29T05:44:32;100853.72;;;6.77;75.10
73501;BME280;61721;42.206;25.320;2022-12-29T05:47:15;100861.00;;;6.13;76.61
73501;BME280;61721;42.206;25.320;2022-12-29T05:49:42;100857.63;;;6.86;74.93
73501;BME280;61721;42.206;25.320;2022-12-29T05:52:42;100856.78;;;6.85;74.44
73501;BME280;61721;42.206;25.320;2022-12-29T05:55:15;100862.59;;;6.92;74.31
73501;BME280;61721;42.206;25.320;2022-12-29T05:57:43;100863.53;;;6.61;75.34
73501;BME280;61721;42.206;25.320;2022-12-29T06:00:30;100862.72;;;6.14;77.79
73501;BME280;61721;42.206;25.320;2022-12-29T06:02:57;100869.66;;;6.77;75.40
73501;BME280;61721;42.206;25.320;2022-12-29T06:05:24;100866.97;;;6.00;77.27
73501;BME280;61721;42.206;25.320;2022-12-29T06:08:10;100877.28;;;6.07;77.47
73501;BME280;61721;42.206;25.320;2022-12-29T06:10:43;100877.06;;;6.72;75.44
73501;BME280;61721;42.206;25.320;2022-12-29T06:13:19;100868.69;;;6.64;76.47
73501;BME280;61721;42.206;25.320;2022-12-29T06:16:03;100862.50;;;6.64;75.53
73501;BME280;61721;42.206;25.320;2022-12-29T06:18:49;100872.31;;;6.16;77.41
73501;BME280;61721;42.206;25.320;2022-12-29T06:21:17;100867.19;;;6.29;76.93
73501;BME280;61721;42.206;25.320;2022-12-29T06:24:04;100869.38;;;5.89;78.96
73501;BME280;61721;42.206;25.320;2022-12-29T06:26:34;100871.69;;;5.95;78.37
73501;BME280;61721;42.206;25.320;2022-12-29T06:29:03;100867.19;;;6.29;76.41
73501;BME280;61721;42.206;25.320;2022-12-29T06:31:51;100866.78;;;6.66;75.78
73501;BME280;61721;42.206;25.320;2022-12-29T06:34:40;100860.19;;;6.87;74.47
73501;BME280;61721;42.206;25.320;2022-12-29T06:37:22;100864.44;;;7.06;74.36
73501;BME280;61721;42.206;25.320;2022-12-29T06:39:49;100862.03;;;7.01;73.96
73501;BME280;61721;42.206;25.320;2022-12-29T06:42:17;100873.47;;;7.03;73.40
73501;BME280;61721;42.206;25.320;2022-12-29T06:45:03;100865.75;;;6.69;75.77
73501;BME280;61721;42.206;25.320;2022-12-29T06:47:32;100871.75;;;6.72;75.49
73501;BME280;61721;42.206;25.320;2022-12-29T06:49:59;100868.59;;;7.68;72.28
73501;BME280;61721;42.206;25.320;2022-12-29T06:52:45;100868.66;;;7.24;73.53
73501;BME280;61721;42.206;25.320;2022-12-29T06:55:31;100873.84;;;7.41;72.49
73501;BME280;61721;42.206;25.320;2022-12-29T06:57:58;100874.34;;;7.18;73.25
73501;BME280;61721;42.206;25.320;2022-12-29T07:00:35;100868.47;;;7.98;70.17
73501;BME280;61721;42.206;25.320;2022-12-29T07:03:22;100875.03;;;8.21;69.11
73501;BME280;61721;42.206;25.320;2022-12-29T07:06:08;100873.19;;;7.66;70.56
73501;BME280;61721;42.206;25.320;2022-12-29T07:08:54;100877.34;;;7.84;70.30
73501;BME280;61721;42.206;25.320;2022-12-29T07:11:37;100889.03;;;8.10;69.06
73501;BME280;61721;42.206;25.320;2022-12-29T07:14:05;100885.72;;;8.62;68.22
73501;BME280;61721;42.206;25.320;2022-12-29T07:16:50;100879.41;;;8.22;68.88
73501;BME280;61721;42.206;25.320;2022-12-29T07:19:19;100896.66;;;7.59;70.47
73501;BME280;61721;42.206;25.320;2022-12-29T07:22:05;100889.03;;;7.39;72.64
73501;BME280;61721;42.206;25.320;2022-12-29T07:24:51;100892.06;;;7.47;71.77
73501;BME280;61721;42.206;25.320;2022-12-29T07:27:33;100883.88;;;8.21;69.12
73501;BME280;61721;42.206;25.320;2022-12-29T07:30:00;100890.44;;;8.97;66.93
73501;BME280;61721;42.206;25.320;2022-12-29T07:32:46;100887.94;;;8.94;66.84
73501;BME280;61721;42.206;25.320;2022-12-29T07:35:34;100893.69;;;8.35;69.84
73501;BME280;61721;42.206;25.320;2022-12-29T07:38:12;100889.41;;;8.59;67.84
73501;BME280;61721;42.206;25.320;2022-12-29T07:40:58;100882.88;;;8.50;68.22
73501;BME280;61721;42.206;25.320;2022-12-29T07:43:47;100889.41;;;8.04;69.86
73501;BME280;61721;42.206;25.320;2022-12-29T07:46:33;100897.56;;;8.29;70.55
73501;BME280;61721;42.206;25.320;2022-12-29T07:49:12;100891.84;;;8.76;69.25
73501;BME280;61721;42.206;25.320;2022-12-29T07:51:56;100899.84;;;9.03;66.51
73501;BME280;61721;42.206;25.320;2022-12-29T07:54:41;100903.28;;;9.30;66.29
73501;BME280;61721;42.206;25.320;2022-12-29T07:57:18;100897.97;;;9.56;65.22
73501;BME280;61721;42.206;25.320;2022-12-29T07:59:46;100899.78;;;9.42;65.57
73501;BME280;61721;42.206;25.320;2022-12-29T08:02:13;100906.84;;;9.94;64.33
73501;BME280;61721;42.206;25.320;2022-12-29T08:04:59;100909.44;;;9.06;67.07
73501;BME280;61721;42.206;25.320;2022-12-29T08:07:30;100917.69;;;9.15;67.16
73501;BME280;61721;42.206;25.320;2022-12-29T08:10:16;100910.16;;;9.34;66.21
73501;BME280;61721;42.206;25.320;2022-12-29T08:12:53;100916.91;;;9.00;67.15
73501;BME280;61721;42.206;25.320;2022-12-29T08:15:29;100910.94;;;9.74;66.01
73501;BME280;61721;42.206;25.320;2022-12-29T08:18:14;100913.81;;;9.71;65.73
73501;BME280;61721;42.206;25.320;2022-12-29T08:20:41;100912.59;;;10.01;65.42
73501;BME280;61721;42.206;25.320;2022-12-29T08:23:15;100919.94;;;10.48;63.28
73501;BME280;61721;42.206;25.320;2022-12-29T08:26:02;100918.09;;;9.74;64.38
73501;BME280;61721;42.206;25.320;2022-12-29T08:28:49;100916.53;;;10.93;61.02
73501;BME280;61721;42.206;25.320;2022-12-29T08:31:18;100916.59;;;11.04;60.52
73501;BME280;61721;42.206;25.320;2022-12-29T08:34:04;100910.56;;;10.66;61.78
73501;BME280;61721;42.206;25.320;2022-12-29T08:36:32;100902.38;;;10.44;61.86
73501;BME280;61721;42.206;25.320;2022-12-29T08:39:03;100901.41;;;10.81;62.68
73501;BME280;61721;42.206;25.320;2022-12-29T08:41:42;100896.56;;;11.67;59.21
73501;BME280;61721;42.206;25.320;2022-12-29T08:44:28;100902.28;;;11.17;60.42
73501;BME280;61721;42.206;25.320;2022-12-29T08:47:14;100899.22;;;12.45;56.92
73501;BME280;61721;42.206;25.320;2022-12-29T08:49:41;100892.94;;;12.02;57.00
73501;BME280;61721;42.206;25.320;2022-12-29T08:52:28;100882.19;;;11.90;56.65
73501;BME280;61721;42.206;25.320;2022-12-29T08:55:15;100890.69;;;12.51;55.86
73501;BME280;61721;42.206;25.320;2022-12-29T08:58:01;100889.00;;;12.82;55.27
73501;BME280;61721;42.206;25.320;2022-12-29T09:00:31;100880.22;;;12.15;55.72
73501;BME280;61721;42.206;25.320;2022-12-29T09:03:03;100876.78;;;12.89;54.01
73501;BME280;61721;42.206;25.320;2022-12-29T09:05:49;100874.38;;;13.07;53.64
73501;BME280;61721;42.206;25.320;2022-12-29T09:08:36;100864.66;;;12.09;55.97
73501;BME280;61721;42.206;25.320;2022-12-29T09:11:24;100861.34;;;11.94;57.53
73501;BME280;61721;42.206;25.320;2022-12-29T09:13:54;100853.69;;;13.60;52.83
73501;BME280;61721;42.206;25.320;2022-12-29T09:16:40;100858.44;;;12.08;55.24
73501;BME280;61721;42.206;25.320;2022-12-29T09:19:27;100845.19;;;12.70;55.03
73501;BME280;61721;42.206;25.320;2022-12-29T09:22:13;100844.44;;;13.32;53.33
73501;BME280;61721;42.206;25.320;2022-12-29T09:24:46;100845.66;;;12.75;53.96
73501;BME280;61721;42.206;25.320;2022-12-29T09:27:33;100847.88;;;12.70;53.88
73501;BME280;61721;42.206;25.320;2022-12-29T09:30:05;100840.59;;;12.61;54.47
73501;BME280;61721;42.206;25.320;2022-12-29T09:32:46;100835.25;;;13.55;52.61
73501;BME280;61721;42.206;25.320;2022-12-29T09:35:14;100827.72;;;12.76;54.42
73501;BME280;61721;42.206;25.320;2022-12-29T09:37:42;100815.41;;;11.87;56.35
73501;BME280;61721;42.206;25.320;2022-12-29T09:40:25;100821.34;;;11.80;56.23
73501;BME280;61721;42.206;25.320;2022-12-29T09:43:16;100821.88;;;12.71;54.50
73501;BME280;61721;42.206;25.320;2022-12-29T09:46:14;100814.63;;;11.52;57.07
73501;BME280;61721;42.206;25.320;2022-12-29T09:49:08;100815.66;;;11.73;57.25
73501;BME280;61721;42.206;25.320;2022-12-29T09:52:01;100812.59;;;12.43;54.49
73501;BME280;61721;42.206;25.320;2022-12-29T09:54:41;100805.44;;;12.21;55.17
73501;BME280;61721;42.206;25.320;2022-12-29T09:57:15;100807.75;;;12.26;55.72
73501;BME280;61721;42.206;25.320;2022-12-29T09:59:56;100800.09;;;13.78;50.43
73501;BME280;61721;42.206;25.320;2022-12-29T10:02:36;100782.69;;;13.51;51.17
73501;BME280;61721;42.206;25.320;2022-12-29T10:05:13;100786.97;;;14.53;48.30
73501;BME280;61721;42.206;25.320;2022-12-29T10:08:16;100778.09;;;16.29;44.67
73501;BME280;61721;42.206;25.320;2022-12-29T10:14:10;100769.47;;;15.98;45.58
73501;BME280;61721;42.206;25.320;2022-12-29T10:16:59;100779.91;;;15.47;44.96
73501;BME280;61721;42.206;25.320;2022-12-29T10:19:54;100779.31;;;16.17;45.37
73501;BME280;61721;42.206;25.320;2022-12-29T10:22:51;100770.16;;;16.00;44.19
73501;BME280;61721;42.206;25.320;2022-12-29T10:25:42;100764.47;;;16.03;45.26
73501;BME280;61721;42.206;25.320;2022-12-29T10:28:34;100762.47;;;16.86;42.38
73501;BME280;61721;42.206;25.320;2022-12-29T10:31:30;100760.13;;;16.55;43.00
73501;BME280;61721;42.206;25.320;2022-12-29T10:34:10;100755.88;;;16.35;43.70
73501;BME280;61721;42.206;25.320;2022-12-29T10:36:43;100752.06;;;16.46;43.61
73501;BME280;61721;42.206;25.320;2022-12-29T10:39:35;100754.91;;;16.26;44.67
73501;BME280;61721;42.206;25.320;2022-12-29T10:42:15;100733.25;;;17.15;42.46
73501;BME280;61721;42.206;25.320;2022-12-29T10:44:58;100736.94;;;17.40;41.11
73501;BME280;61721;42.206;25.320;2022-12-29T10:47:29;100739.38;;;17.85;40.17
73501;BME280;61721;42.206;25.320;2022-12-29T10:50:13;100734.72;;;17.09;41.94
73501;BME280;61721;42.206;25.320;2022-12-29T10:52:41;100729.38;;;16.21;44.23
73501;BME280;61721;42.206;25.320;2022-12-29T10:55:29;100730.19;;;16.92;42.09
73501;BME280;61721;42.206;25.320;2022-12-29T10:58:04;100720.59;;;17.16;41.75
73501;BME280;61721;42.206;25.320;2022-12-29T11:00:38;100709.84;;;17.32;41.80
73501;BME280;61721;42.206;25.320;2022-12-29T11:03:43;100718.84;;;17.06;40.82
73501;BME280;61721;42.206;25.320;2022-12-29T11:06:31;100715.53;;;16.06;43.80
73501;BME280;61721;42.206;25.320;2022-12-29T11:09:23;100711.75;;;16.88;41.27
73501;BME280;61721;42.206;25.320;2022-12-29T11:11:51;100709.59;;;17.93;39.64
73501;BME280;61721;42.206;25.320;2022-12-29T11:14:37;100697.69;;;18.28;39.81
73501;BME280;61721;42.206;25.320;2022-12-29T11:17:25;100701.09;;;17.72;39.88
73501;BME280;61721;42.206;25.320;2022-12-29T11:19:58;100699.31;;;19.50;36.64
73501;BME280;61721;42.206;25.320;2022-12-29T11:22:28;100695.81;;;18.20;38.55
73501;BME280;61721;42.206;25.320;2022-12-29T11:25:10;100695.63;;;18.30;38.86
73501;BME280;61721;42.206;25.320;2022-12-29T11:28:00;100695.28;;;18.17;38.58
73501;BME280;61721;42.206;25.320;2022-12-29T11:30:30;100698.88;;;18.90;37.02
73501;BME280;61721;42.206;25.320;2022-12-29T11:33:12;100688.84;;;17.26;40.63
73501;BME280;61721;42.206;25.320;2022-12-29T11:35:58;100684.06;;;16.68;41.88
73501;BME280;61721;42.206;25.320;2022-12-29T11:38:38;100675.69;;;19.90;36.63
73501;BME280;61721;42.206;25.320;2022-12-29T11:41:13;100678.38;;;19.04;36.58
73501;BME280;61721;42.206;25.320;2022-12-29T11:44:05;100674.22;;;16.85;41.39
73501;BME280;61721;42.206;25.320;2022-12-29T11:46:35;100666.50;;;18.97;37.14
73501;BME280;61721;42.206;25.320;2022-12-29T11:49:20;100674.13;;;16.94;40.53
73501;BME280;61721;42.206;25.320;2022-12-29T11:51:57;100665.56;;;20.29;35.71
73501;BME280;61721;42.206;25.320;2022-12-29T11:54:44;100666.16;;;18.92;37.78
73501;BME280;61721;42.206;25.320;2022-12-29T11:57:18;100672.47;;;17.61;38.80
73501;BME280;61721;42.206;25.320;2022-12-29T12:00:03;100654.84;;;18.48;37.60
73501;BME280;61721;42.206;25.320;2022-12-29T12:02:56;100651.28;;;18.71;36.62
73501;BME280;61721;42.206;25.320;2022-12-29T12:05:30;100655.34;;;19.86;36.34
73501;BME280;61721;42.206;25.320;2022-12-29T12:08:22;100653.41;;;17.87;39.15
73501;BME280;61721;42.206;25.320;2022-12-29T12:11:09;100652.78;;;18.50;37.99
73501;BME280;61721;42.206;25.320;2022-12-29T12:13:41;100642.72;;;20.61;34.65
73501;BME280;61721;42.206;25.320;2022-12-29T12:16:33;100645.63;;;20.60;34.75
73501;BME280;61721;42.206;25.320;2022-12-29T12:19:15;100650.84;;;20.01;35.81
73501;BME280;61721;42.206;25.320;2022-12-29T12:21:51;100647.69;;;19.42;36.71
73501;BME280;61721;42.206;25.320;2022-12-29T12:24:44;100643.25;;;19.88;36.27
73501;BME280;61721;42.206;25.320;2022-12-29T12:27:39;100648.22;;;17.18;38.67
73501;BME280;61721;42.206;25.320;2022-12-29T12:30:18;100641.84;;;17.69;39.89
73501;BME280;61721;42.206;25.320;2022-12-29T12:33:06;100628.00;;;20.10;35.43
73501;BME280;61721;42.206;25.320;2022-12-29T12:35:56;100637.28;;;19.93;36.63
73501;BME280;61721;42.206;25.320;2022-12-29T12:38:39;100637.44;;;19.69;36.23
73501;BME280;61721;42.206;25.320;2022-12-29T12:41:41;100641.09;;;18.49;38.98
73501;BME280;61721;42.206;25.320;2022-12-29T12:44:38;100637.22;;;18.27;37.74
73501;BME280;61721;42.206;25.320;2022-12-29T12:47:38;100629.19;;;20.30;34.78
73501;BME280;61721;42.206;25.320;2022-12-29T12:50:26;100631.97;;;18.66;36.96
73501;BME280;61721;42.206;25.320;2022-12-29T12:53:05;100641.25;;;19.43;36.36
73501;BME280;61721;42.206;25.320;2022-12-29T12:56:14;100634.31;;;19.80;35.73
73501;BME280;61721;42.206;25.320;2022-12-29T12:58:59;100636.69;;;20.28;33.46
73501;BME280;61721;42.206;25.320;2022-12-29T13:01:38;100632.66;;;18.60;38.19
73501;BME280;61721;42.206;25.320;2022-12-29T13:04:40;100624.59;;;21.06;34.10
73501;BME280;61721;42.206;25.320;2022-12-29T13:07:38;100635.75;;;20.21;35.08
73501;BME280;61721;42.206;25.320;2022-12-29T13:10:18;100634.75;;;20.14;35.89
73501;BME280;61721;42.206;25.320;2022-12-29T13:13:31;100624.53;;;18.68;38.21
73501;BME280;61721;42.206;25.320;2022-12-29T13:16:23;100628.91;;;18.53;38.04
73501;BME280;61721;42.206;25.320;2022-12-29T13:19:08;100636.22;;;16.86;41.12
73501;BME280;61721;42.206;25.320;2022-12-29T13:21:56;100632.97;;;18.01;39.56
73501;BME280;61721;42.206;25.320;2022-12-29T13:24:52;100632.22;;;17.66;39.52
73501;BME280;61721;42.206;25.320;2022-12-29T13:27:26;100628.56;;;18.64;37.47
73501;BME280;61721;42.206;25.320;2022-12-29T13:30:16;100630.22;;;19.53;37.10
73501;BME280;61721;42.206;25.320;2022-12-29T13:32:55;100631.28;;;18.64;37.50
73501;BME280;61721;42.206;25.320;2022-12-29T13:35:52;100639.88;;;17.95;38.87
73501;BME280;61721;42.206;25.320;2022-12-29T13:38:32;100639.59;;;20.04;35.33
73501;BME280;61721;42.206;25.320;2022-12-29T13:41:25;100644.84;;;18.64;37.49
73501;BME280;61721;42.206;25.320;2022-12-29T13:44:17;100638.44;;;18.57;37.43
73501;BME280;61721;42.206;25.320;2022-12-29T13:47:12;100643.66;;;16.92;40.65
73501;BME280;61721;42.206;25.320;2022-12-29T13:50:05;100635.53;;;18.67;37.52
73501;BME280;61721;42.206;25.320;2022-12-29T13:52:58;100638.13;;;17.70;39.78
73501;BME280;61721;42.206;25.320;2022-12-29T13:55:39;100637.59;;;17.24;40.60
73501;BME280;61721;42.206;25.320;2022-12-29T13:58:31;100643.16;;;17.57;39.72
73501;BME280;61721;42.206;25.320;2022-12-29T14:01:14;100646.09;;;17.71;40.07
73501;BME280;61721;42.206;25.320;2022-12-29T14:04:08;100649.97;;;17.61;40.15